createdAt,value
2022-12-01T00:02:21.426Z,6.45
2022-12-01T00:04:51.380Z,6.40
2022-12-01T00:07:21.242Z,6.70
2022-12-01T00:10:08.480Z,6.22
2022-12-01T00:12:43.825Z,6.26
2022-12-01T00:15:16.150Z,6.17
2022-12-01T00:17:47.792Z,6.00
2022-12-01T00:20:18.971Z,6.40
2022-12-01T00:22:49.959Z,6.80
2022-12-01T00:25:21.988Z,6.85
2022-12-01T00:27:53.102Z,6.72
2022-12-01T00:30:25.488Z,6.77
2022-12-01T00:32:55.322Z,6.84
2022-12-01T00:35:25.549Z,6.98
2022-12-01T00:37:55.786Z,6.78
2022-12-01T00:40:25.094Z,6.96
2022-12-01T00:42:54.920Z,6.83
2022-12-01T00:45:26.508Z,6.90
2022-12-01T00:47:56.200Z,6.80
2022-12-01T00:50:26.414Z,6.83
2022-12-01T00:52:57.919Z,6.95
2022-12-01T00:55:27.750Z,6.55
2022-12-01T00:57:57.655Z,6.74
2022-12-01T01:01:23.955Z,6.66
2022-12-01T01:03:56.206Z,6.93
2022-12-01T01:06:26.039Z,6.84
2022-12-01T01:08:55.955Z,6.52
2022-12-01T01:11:25.545Z,5.83
2022-12-01T01:13:55.101Z,5.72
2022-12-01T01:16:25.312Z,6.48
2022-12-01T01:18:58.486Z,6.92
2022-12-01T01:21:29.151Z,6.98
2022-12-01T01:23:58.948Z,7.03
2022-12-01T01:26:30.666Z,6.86
2022-12-01T01:29:02.021Z,6.83
2022-12-01T01:31:32.952Z,6.95
2022-12-01T01:34:05.655Z,6.90
2022-12-01T01:36:36.923Z,7.08
2022-12-01T01:39:06.676Z,7.16
2022-12-01T01:41:36.992Z,6.94
2022-12-01T01:44:21.530Z,6.76
2022-12-01T01:46:51.646Z,6.75
2022-12-01T01:49:23.151Z,6.50
2022-12-01T01:51:55.493Z,6.66
2022-12-01T01:54:28.678Z,6.91
2022-12-01T01:57:00.648Z,6.84
2022-12-01T01:59:33.243Z,6.71
2022-12-01T02:02:07.699Z,6.49
2022-12-01T02:04:42.588Z,6.45
2022-12-01T02:07:14.320Z,6.54
2022-12-01T02:09:44.090Z,6.62
2022-12-01T02:12:21.775Z,6.52
2022-12-01T02:15:09.908Z,6.60
2022-12-01T02:17:45.462Z,6.64
2022-12-01T02:20:41.979Z,6.62
2022-12-01T02:23:35.638Z,6.18
2022-12-01T02:26:17.327Z,6.26
2022-12-01T02:29:03.889Z,6.30
2022-12-01T02:31:40.903Z,6.15
2022-12-01T02:34:15.346Z,6.17
2022-12-01T02:36:50.454Z,6.18
2022-12-01T02:39:26.223Z,6.09
2022-12-01T02:42:03.773Z,6.19
2022-12-01T02:44:36.964Z,6.11
2022-12-01T02:47:12.255Z,5.84
2022-12-01T02:49:46.112Z,5.87
2022-12-01T02:52:17.689Z,5.97
2022-12-01T02:54:48.823Z,6.21
2022-12-01T02:57:19.008Z,6.28
2022-12-01T02:59:51.936Z,6.23
2022-12-01T03:02:29.366Z,6.17
2022-12-01T03:05:02.252Z,6.07
2022-12-01T03:07:48.534Z,5.81
2022-12-01T03:10:24.256Z,5.91
2022-12-01T03:13:03.923Z,6.17
2022-12-01T03:15:38.133Z,6.40
2022-12-01T03:18:17.206Z,6.36
2022-12-01T03:20:50.648Z,6.26
2022-12-01T03:23:23.736Z,6.24
2022-12-01T03:25:56.419Z,5.98
2022-12-01T03:28:30.233Z,6.55
2022-12-01T03:31:03.653Z,6.72
2022-12-01T03:33:37.412Z,6.45
2022-12-01T03:36:10.755Z,6.19
2022-12-01T03:38:41.483Z,6.18
2022-12-01T03:41:15.640Z,6.00
2022-12-01T03:43:50.139Z,6.14
2022-12-01T03:46:23.899Z,6.09
2022-12-01T03:48:56.058Z,6.35
2022-12-01T03:51:32.273Z,6.55
2022-12-01T03:54:04.952Z,6.42
2022-12-01T03:56:38.199Z,6.33
2022-12-01T03:59:09.115Z,5.84
2022-12-01T04:01:39.024Z,5.79
2022-12-01T04:04:12.929Z,6.45
2022-12-01T04:06:44.982Z,6.46
2022-12-01T04:09:15.275Z,6.32
2022-12-01T04:12:04.528Z,6.38
2022-12-01T04:14:34.208Z,6.11
2022-12-01T04:17:04.887Z,5.72
2022-12-01T04:19:35.976Z,5.98
2022-12-01T04:22:06.261Z,5.79
2022-12-01T04:24:39.587Z,6.04
2022-12-01T04:27:09.966Z,5.91
2022-12-01T04:29:39.782Z,6.22
2022-12-01T04:32:11.399Z,6.07
2022-12-01T04:34:43.383Z,6.28
2022-12-01T04:37:13.606Z,6.10
2022-12-01T04:39:43.583Z,6.36
2022-12-01T04:42:13.620Z,6.11
2022-12-01T04:44:43.503Z,6.60
2022-12-01T04:47:13.284Z,6.46
2022-12-01T04:49:44.590Z,6.37
2022-12-01T04:52:14.381Z,5.75
2022-12-01T04:54:44.487Z,6.07
2022-12-01T04:57:13.865Z,5.99
2022-12-01T04:59:43.272Z,5.63
2022-12-01T05:02:18.968Z,6.13
2022-12-01T05:04:50.965Z,6.44
2022-12-01T05:07:20.643Z,6.01
2022-12-01T05:09:52.459Z,5.84
2022-12-01T05:12:24.094Z,6.20
2022-12-01T05:14:55.227Z,6.13
2022-12-01T05:17:24.983Z,6.23
2022-12-01T05:20:13.788Z,5.78
2022-12-01T05:23:05.013Z,6.06
2022-12-01T05:25:33.608Z,5.97
2022-12-01T05:28:03.840Z,5.58
2022-12-01T05:30:36.435Z,5.69
2022-12-01T05:33:06.308Z,6.12
2022-12-01T05:35:37.884Z,5.82
2022-12-01T05:38:08.344Z,5.79
2022-12-01T05:40:38.752Z,6.14
2022-12-01T05:43:09.283Z,5.95
2022-12-01T05:45:39.508Z,5.69
2022-12-01T05:48:10.276Z,5.64
2022-12-01T05:50:43.092Z,5.65
2022-12-01T05:53:19.986Z,5.62
2022-12-01T05:55:57.981Z,5.30
2022-12-01T05:58:27.869Z,5.59
2022-12-01T06:00:57.811Z,5.70
2022-12-01T06:03:27.728Z,5.29
2022-12-01T06:05:59.290Z,6.04
2022-12-01T06:08:29.301Z,5.79
2022-12-01T06:10:59.216Z,6.33
2022-12-01T06:13:29.244Z,6.09
2022-12-01T06:16:00.525Z,5.68
2022-12-01T06:18:32.074Z,6.03
2022-12-01T06:21:03.397Z,5.76
2022-12-01T06:23:32.994Z,5.73
2022-12-01T06:26:02.659Z,6.01
2022-12-01T06:28:32.965Z,5.91
2022-12-01T06:31:03.645Z,5.97
2022-12-01T06:33:33.629Z,6.03
2022-12-01T06:36:06.919Z,6.44
2022-12-01T06:38:38.517Z,6.12
2022-12-01T06:41:08.455Z,6.00
2022-12-01T06:43:39.008Z,5.97
2022-12-01T06:46:09.053Z,6.08
2022-12-01T06:48:39.635Z,6.05
2022-12-01T06:51:11.871Z,5.93
2022-12-01T06:53:42.435Z,5.56
2022-12-01T06:56:12.943Z,5.74
2022-12-01T06:58:43.392Z,5.50
2022-12-01T07:01:15.018Z,6.01
2022-12-01T07:03:44.852Z,5.77
2022-12-01T07:06:16.269Z,5.54
2022-12-01T07:08:46.324Z,6.19
2022-12-01T07:11:16.992Z,5.77
2022-12-01T07:13:50.187Z,5.90
2022-12-01T07:16:20.145Z,6.05
2022-12-01T07:18:49.944Z,5.81
2022-12-01T07:21:22.103Z,6.00
2022-12-01T07:23:52.262Z,6.04
2022-12-01T07:26:21.997Z,5.75
2022-12-01T07:28:51.818Z,5.52
2022-12-01T07:31:23.441Z,5.99
2022-12-01T07:33:54.008Z,6.38
2022-12-01T07:36:25.859Z,6.44
2022-12-01T07:38:55.336Z,5.93
2022-12-01T07:41:25.285Z,5.94
2022-12-01T07:43:56.845Z,5.99
2022-12-01T07:46:30.797Z,5.99
2022-12-01T07:49:01.431Z,6.25
2022-12-01T07:51:33.618Z,6.17
2022-12-01T07:54:06.583Z,6.07
2022-12-01T07:56:37.931Z,6.16
2022-12-01T07:59:08.088Z,5.61
2022-12-01T08:01:42.920Z,5.78
2022-12-01T08:04:14.148Z,6.03
2022-12-01T08:06:45.395Z,5.73
2022-12-01T08:09:15.379Z,6.20
2022-12-01T08:11:44.969Z,6.06
2022-12-01T08:14:14.628Z,5.54
2022-12-01T08:16:44.899Z,5.84
2022-12-01T08:19:14.923Z,6.27
2022-12-01T08:21:46.193Z,6.17
2022-12-01T08:24:16.144Z,5.82
2022-12-01T08:26:45.665Z,5.72
2022-12-01T08:29:19.964Z,5.76
2022-12-01T08:31:50.239Z,5.94
2022-12-01T08:34:19.970Z,6.12
2022-12-01T08:36:52.443Z,6.40
2022-12-01T08:39:22.437Z,6.45
2022-12-01T08:41:52.173Z,6.08
2022-12-01T08:44:21.916Z,6.12
2022-12-01T08:46:52.807Z,6.09
2022-12-01T08:49:23.399Z,5.75
2022-12-01T08:51:56.605Z,5.60
2022-12-01T08:54:26.493Z,5.78
2022-12-01T08:56:56.460Z,5.73
2022-12-01T08:59:26.070Z,5.56
2022-12-01T09:01:59.680Z,5.60
2022-12-01T09:04:32.088Z,5.60
2022-12-01T09:07:03.849Z,5.66
2022-12-01T09:09:37.914Z,5.88
2022-12-01T09:12:09.290Z,5.80
2022-12-01T09:14:40.589Z,5.64
2022-12-01T09:17:11.404Z,5.69
2022-12-01T09:19:41.028Z,5.63
2022-12-01T09:22:12.708Z,6.11
2022-12-01T09:24:42.366Z,5.73
2022-12-01T09:27:13.656Z,5.68
2022-12-01T09:29:43.453Z,5.95
2022-12-01T09:32:13.417Z,6.11
2022-12-01T09:34:43.971Z,6.11
2022-12-01T09:37:15.584Z,6.24
2022-12-01T09:39:45.408Z,6.34
2022-12-01T09:42:18.888Z,6.01
2022-12-01T09:44:51.573Z,5.51
2022-12-01T09:47:24.748Z,5.68
2022-12-01T09:50:00.594Z,5.82
2022-12-01T09:52:36.133Z,5.83
2022-12-01T09:55:09.152Z,5.79
2022-12-01T09:57:40.574Z,5.93
2022-12-01T10:00:16.340Z,6.08
2022-12-01T10:02:51.174Z,6.50
2022-12-01T10:05:23.581Z,6.13
2022-12-01T10:07:58.174Z,5.78
2022-12-01T10:10:30.407Z,5.78
2022-12-01T10:13:00.755Z,5.64
2022-12-01T10:15:42.076Z,5.77
2022-12-01T10:18:22.813Z,5.83
2022-12-01T10:20:58.387Z,5.60
2022-12-01T10:23:49.276Z,6.05
2022-12-01T10:26:27.048Z,5.64
2022-12-01T10:29:23.238Z,5.53
2022-12-01T10:31:58.266Z,5.86
2022-12-01T10:34:30.720Z,6.01
2022-12-01T10:37:00.515Z,5.91
2022-12-01T10:39:35.392Z,5.86
2022-12-01T10:42:08.693Z,5.74
2022-12-01T10:44:38.688Z,5.63
2022-12-01T10:47:18.789Z,5.77
2022-12-01T10:49:49.440Z,5.85
2022-12-01T10:52:37.368Z,5.76
2022-12-01T10:55:28.719Z,5.95
2022-12-01T10:58:04.768Z,6.05
2022-12-01T11:00:59.057Z,5.83
2022-12-01T11:03:33.409Z,5.96
2022-12-01T11:06:06.503Z,5.79
2022-12-01T11:08:42.248Z,5.88
2022-12-01T11:11:26.769Z,6.17
2022-12-01T11:13:57.575Z,5.76
2022-12-01T11:16:42.829Z,5.87
2022-12-01T11:19:27.296Z,5.96
2022-12-01T11:21:59.095Z,6.01
2022-12-01T11:24:43.787Z,5.77
2022-12-01T11:27:19.112Z,5.98
2022-12-01T11:29:51.401Z,5.92
2022-12-01T11:32:25.097Z,6.25
2022-12-01T11:34:58.379Z,6.46
2022-12-01T11:37:32.802Z,6.17
2022-12-01T11:40:21.893Z,6.06
2022-12-01T11:42:55.449Z,5.98
2022-12-01T11:45:29.890Z,6.09
2022-12-01T11:48:03.914Z,5.61
2022-12-01T11:50:35.654Z,5.67
2022-12-01T11:53:07.950Z,6.00
2022-12-01T11:55:37.630Z,5.80
2022-12-01T11:58:11.062Z,5.53
2022-12-01T12:00:47.769Z,5.80
2022-12-01T12:03:22.964Z,5.77
2022-12-01T12:06:18.254Z,5.71
2022-12-01T12:09:08.706Z,5.71
2022-12-01T12:11:45.308Z,5.89
2022-12-01T12:14:26.150Z,6.16
2022-12-01T12:17:21.715Z,6.03
2022-12-01T12:20:18.255Z,5.96
2022-12-01T12:22:57.429Z,5.82
2022-12-01T12:25:34.391Z,6.02
2022-12-01T12:28:20.925Z,5.97
2022-12-01T12:30:57.183Z,5.96
2022-12-01T12:33:44.220Z,5.70
2022-12-01T12:36:20.979Z,5.92
2022-12-01T12:39:09.771Z,5.97
2022-12-01T12:41:47.124Z,6.08
2022-12-01T12:44:41.587Z,5.77
2022-12-01T12:47:24.073Z,5.74
2022-12-01T12:50:00.355Z,5.74
2022-12-01T12:52:34.133Z,5.55
2022-12-01T12:55:16.238Z,5.68
2022-12-01T12:57:49.563Z,5.79
2022-12-01T13:00:22.338Z,6.40
2022-12-01T13:02:59.326Z,5.99
2022-12-01T13:05:34.759Z,6.23
2022-12-01T13:08:08.187Z,6.04
2022-12-01T13:10:43.987Z,6.28
2022-12-01T13:13:22.646Z,6.34
2022-12-01T13:15:54.469Z,6.36
2022-12-01T13:18:35.863Z,6.66
2022-12-01T13:21:06.962Z,6.28
2022-12-01T13:23:39.672Z,6.65
2022-12-01T13:26:11.505Z,6.47
2022-12-01T13:28:45.705Z,6.13
2022-12-01T13:31:16.894Z,6.15
2022-12-01T13:33:57.225Z,6.16
2022-12-01T13:36:46.249Z,6.02
2022-12-01T13:39:22.159Z,6.56
2022-12-01T13:42:07.369Z,6.55
2022-12-01T13:44:42.484Z,6.12
2022-12-01T13:47:41.660Z,6.23
2022-12-01T13:50:51.298Z,6.44
2022-12-01T13:53:31.396Z,6.86
2022-12-01T13:56:07.077Z,6.58
2022-12-01T13:58:52.391Z,6.74
2022-12-01T14:01:47.408Z,6.76
2022-12-01T14:04:33.488Z,6.60
2022-12-01T14:07:40.129Z,6.26
2022-12-01T14:10:25.324Z,6.59
2022-12-01T14:12:58.821Z,6.60
2022-12-01T14:15:41.061Z,6.39
2022-12-01T14:18:33.833Z,6.53
2022-12-01T14:21:06.750Z,6.43
2022-12-01T14:23:40.198Z,6.54
2022-12-01T14:26:16.081Z,6.51
2022-12-01T14:29:18.840Z,6.78
2022-12-01T14:32:24.360Z,6.96
2022-12-01T14:35:15.835Z,6.97
2022-12-01T14:37:49.673Z,6.63
2022-12-01T14:40:35.834Z,6.67
2022-12-01T14:43:23.729Z,6.48
2022-12-01T14:46:03.249Z,6.66
2022-12-01T14:48:40.429Z,6.68
2022-12-01T14:51:27.751Z,6.90
2022-12-01T14:53:58.267Z,6.68
2022-12-01T14:56:31.052Z,6.77
2022-12-01T14:59:02.921Z,6.68
2022-12-01T15:01:34.525Z,6.95
2022-12-01T15:04:05.850Z,6.78
2022-12-01T15:06:37.162Z,6.76
2022-12-01T15:09:32.766Z,6.77
2022-12-01T15:12:04.025Z,6.84
2022-12-01T15:14:35.729Z,6.95
2022-12-01T15:17:07.115Z,7.04
2022-12-01T15:19:39.281Z,7.02
2022-12-01T15:22:14.559Z,7.00
2022-12-01T15:24:45.043Z,6.99
2022-12-01T15:27:29.146Z,6.56
2022-12-01T15:30:03.613Z,6.51
2022-12-01T15:32:38.129Z,6.46
2022-12-01T15:35:23.085Z,6.58
2022-12-01T15:37:53.789Z,6.68
2022-12-01T15:41:06.101Z,6.42
2022-12-01T15:43:22.293Z,6.60
2022-12-01T15:45:57.656Z,6.80
2022-12-01T15:48:31.991Z,6.69
2022-12-01T15:51:05.772Z,6.21
2022-12-01T15:53:37.465Z,5.88
2022-12-01T15:56:09.603Z,6.26
2022-12-01T15:58:44.753Z,6.73
2022-12-01T16:01:16.219Z,6.83
2022-12-01T16:03:57.804Z,6.89
2022-12-01T16:06:30.828Z,6.84
2022-12-01T16:09:03.268Z,6.75
2022-12-01T16:11:33.354Z,6.65
2022-12-01T16:14:08.568Z,6.29
2022-12-01T16:16:48.192Z,6.54
2022-12-01T16:19:30.934Z,6.52
2022-12-01T16:22:05.435Z,6.66
2022-12-01T16:24:36.624Z,6.92
2022-12-01T16:27:09.888Z,6.88
2022-12-01T16:29:50.083Z,7.07
2022-12-01T16:32:22.246Z,6.83
2022-12-01T16:34:54.037Z,6.93
2022-12-01T16:37:24.238Z,7.08
2022-12-01T16:39:54.133Z,7.01
2022-12-01T16:42:24.144Z,7.06
2022-12-01T16:44:55.750Z,6.62
2022-12-01T16:47:27.286Z,6.58
2022-12-01T16:49:56.770Z,6.84
2022-12-01T16:55:31.838Z,7.04
2022-12-01T16:58:02.473Z,7.17
2022-12-01T17:00:33.979Z,6.77
2022-12-01T17:03:04.629Z,6.78
2022-12-01T17:05:35.343Z,6.97
2022-12-01T17:08:05.256Z,6.96
2022-12-01T17:10:35.544Z,7.05
2022-12-01T17:13:05.265Z,7.02
2022-12-01T17:15:36.442Z,6.74
2022-12-01T17:18:06.626Z,7.00
2022-12-01T17:20:39.858Z,6.65
2022-12-01T17:23:09.880Z,6.63
2022-12-01T17:25:43.660Z,6.91
2022-12-01T17:28:13.550Z,6.90
2022-12-01T17:30:45.993Z,6.77
2022-12-01T17:33:15.979Z,6.72
2022-12-01T17:35:45.834Z,6.66
2022-12-01T17:38:16.198Z,6.73
2022-12-01T17:40:45.559Z,6.83
2022-12-01T17:43:15.634Z,6.67
2022-12-01T17:45:46.943Z,6.73
2022-12-01T17:48:16.959Z,6.68
2022-12-01T17:50:46.641Z,6.88
2022-12-01T17:53:17.097Z,6.98
2022-12-01T17:55:47.343Z,6.97
2022-12-01T17:58:21.511Z,6.98
2022-12-01T18:00:53.257Z,6.75
2022-12-01T18:03:23.791Z,6.62
2022-12-01T18:06:04.042Z,6.75
2022-12-01T18:08:37.992Z,6.88
2022-12-01T18:11:10.886Z,6.76
2022-12-01T18:13:42.113Z,6.61
2022-12-01T18:16:16.198Z,6.47
2022-12-01T18:18:46.369Z,6.88
2022-12-01T18:21:17.898Z,6.97
2022-12-01T18:23:53.720Z,6.94
2022-12-01T18:26:24.617Z,6.52
2022-12-01T18:28:58.352Z,6.76
2022-12-01T18:31:32.552Z,6.91
2022-12-01T18:34:04.117Z,6.82
2022-12-01T18:36:35.638Z,6.62
2022-12-01T18:39:15.509Z,6.58
2022-12-01T18:41:45.838Z,6.54
2022-12-01T18:44:16.067Z,6.61
2022-12-01T18:46:49.790Z,6.77
2022-12-01T18:49:20.766Z,6.73
2022-12-01T18:51:51.266Z,6.85
2022-12-01T18:54:21.408Z,6.87
2022-12-01T18:56:55.822Z,6.87
2022-12-01T18:59:26.101Z,6.87
2022-12-01T19:01:57.400Z,6.94
2022-12-01T19:04:27.281Z,6.87
2022-12-01T19:06:57.691Z,6.89
2022-12-01T19:09:27.583Z,7.00
2022-12-01T19:12:00.991Z,6.91
2022-12-01T19:14:33.853Z,6.87
2022-12-01T19:17:06.735Z,6.68
2022-12-01T19:19:37.774Z,6.80
2022-12-01T19:22:07.551Z,6.90
2022-12-01T19:24:38.002Z,6.93
2022-12-01T19:27:07.862Z,6.85
2022-12-01T19:29:38.486Z,6.94
2022-12-01T19:32:09.733Z,6.95
2022-12-01T19:34:39.372Z,6.92
2022-12-01T19:37:10.188Z,6.86
2022-12-01T19:39:43.976Z,6.67
2022-12-01T19:42:15.693Z,6.75
2022-12-01T19:44:45.468Z,6.74
2022-12-01T19:47:21.849Z,6.65
2022-12-01T19:49:52.448Z,6.68
2022-12-01T19:52:22.667Z,6.77
2022-12-01T19:54:53.928Z,6.64
2022-12-01T19:57:23.970Z,6.71
2022-12-01T19:59:55.728Z,6.82
2022-12-01T20:02:29.307Z,6.70
2022-12-01T20:04:59.004Z,6.76
2022-12-01T20:07:31.843Z,6.80
2022-12-01T20:10:03.325Z,6.75
2022-12-01T20:12:33.595Z,6.81
2022-12-01T20:15:07.807Z,6.78
2022-12-01T20:17:39.810Z,6.52
2022-12-01T20:20:11.526Z,6.66
2022-12-01T20:22:41.544Z,6.75
2022-12-01T20:25:12.150Z,6.86
2022-12-01T20:27:42.785Z,7.00
2022-12-01T20:30:17.341Z,6.90
2022-12-01T20:32:49.091Z,6.76
2022-12-01T20:35:19.175Z,6.60
2022-12-01T20:37:49.399Z,6.72
2022-12-01T20:40:20.205Z,6.58
2022-12-01T20:42:50.340Z,6.58
2022-12-01T20:45:20.273Z,6.69
2022-12-01T20:47:51.814Z,6.93
2022-12-01T20:50:22.465Z,6.85
2022-12-01T20:52:52.546Z,6.85
2022-12-01T20:55:24.699Z,6.69
2022-12-01T20:57:54.605Z,6.80
2022-12-01T21:00:25.346Z,6.72
2022-12-01T21:02:59.985Z,6.76
2022-12-01T21:05:31.209Z,6.75
2022-12-01T21:08:01.543Z,6.57
2022-12-01T21:10:31.810Z,6.62
2022-12-01T21:13:36.807Z,6.88
2022-12-01T21:16:13.828Z,6.63
2022-12-01T21:18:50.873Z,6.66
2022-12-01T21:21:25.154Z,6.72
2022-12-01T21:24:13.914Z,6.72
2022-12-01T21:26:48.068Z,6.79
2022-12-01T21:29:23.757Z,6.74
2022-12-01T21:31:55.571Z,6.75
2022-12-01T21:34:30.611Z,6.83
2022-12-01T21:37:04.019Z,6.78
2022-12-01T21:39:34.273Z,6.97
2022-12-01T21:42:15.804Z,6.93
2022-12-01T21:44:48.497Z,6.76
2022-12-01T21:47:24.321Z,6.82
2022-12-01T21:49:59.256Z,6.81
2022-12-01T21:52:32.052Z,6.68
2022-12-01T21:55:04.290Z,6.61
2022-12-01T21:57:42.869Z,6.56
2022-12-01T22:00:38.450Z,6.46
2022-12-01T22:03:31.775Z,6.29
2022-12-01T22:06:31.141Z,6.64
2022-12-01T22:09:05.103Z,6.40
2022-12-01T22:11:36.133Z,6.64
2022-12-01T22:14:14.595Z,6.86
2022-12-01T22:16:48.453Z,6.83
2022-12-01T22:19:38.158Z,6.88
2022-12-01T22:22:24.551Z,6.91
2022-12-01T22:24:55.270Z,6.95
2022-12-01T22:27:30.384Z,7.01
2022-12-01T22:30:02.594Z,6.87
2022-12-01T22:32:56.926Z,6.64
2022-12-01T22:35:33.229Z,6.64
2022-12-01T22:38:23.017Z,6.50
2022-12-01T22:41:02.799Z,6.72
2022-12-01T22:43:49.123Z,6.83
2022-12-01T22:46:26.885Z,6.95
2022-12-01T22:49:00.269Z,6.98
2022-12-01T22:51:39.481Z,6.86
2022-12-01T22:54:50.548Z,6.73
2022-12-01T22:57:33.617Z,6.56
2022-12-01T23:00:17.487Z,6.89
2022-12-01T23:02:50.763Z,6.80
2022-12-01T23:05:25.072Z,6.39
2022-12-01T23:07:56.773Z,6.01
2022-12-01T23:10:31.994Z,6.64
2022-12-01T23:13:10.291Z,6.42
2022-12-01T23:15:42.402Z,6.46
2022-12-01T23:18:15.842Z,6.45
2022-12-01T23:20:48.308Z,6.26
2022-12-01T23:23:20.095Z,6.60
2022-12-01T23:25:52.520Z,6.85
2022-12-01T23:28:23.540Z,7.03
2022-12-01T23:30:54.852Z,6.90
2022-12-01T23:33:25.875Z,6.90
2022-12-01T23:35:58.026Z,6.66
2022-12-01T23:38:33.613Z,6.88
2022-12-01T23:41:09.674Z,7.08
2022-12-01T23:43:43.009Z,6.87
2022-12-01T23:46:16.236Z,6.62
2022-12-01T23:48:47.866Z,6.93
2022-12-01T23:51:21.679Z,6.92
2022-12-01T23:53:51.935Z,6.74
2022-12-01T23:56:25.462Z,6.71
2022-12-01T23:58:57.788Z,6.87
